Montour, Idaho
Current Conditions -  °F | °C
As of 2:35 PM on Thursday 23 Oct 2014 (Local Time) from KEUL Reporting Station
Overcast Overcast  
Wind Chill: 61°   Ceiling: 7500
Heat Index: 61°   Visibility: 10mi
Dew Point: 45°   Wind: 8mph
Humidity: 55%   Direction: 110°ESE
Pressure: 30.01"   Gusts: NA
Location:  43.9488°N, 116.553°W
Report Text: KEUL 232035Z AUTO 11007KT 10SM BKN075 OVC110 16/07 A3001 RMK AO1
Loading
Personal Weather Stations






























Interactive Weather Map
Tropical Storm Tracking
New forecast layout! Learn more

10-Day Weather Forecast

Advertisements
Track Severe Weather on mobile